sensor_id;sensor_type;location;lat;lon;timestamp;P1;durP1;ratioP1;P2;durP2;ratioP2
27632;SDS011;15046;50.930;13.334;2023-03-29T00:00:25;11.05;;;2.10;;
27632;SDS011;15046;50.930;13.334;2023-03-29T00:02:51;7.43;;;1.88;;
27632;SDS011;15046;50.930;13.334;2023-03-29T00:05:20;11.85;;;3.60;;
27632;SDS011;15046;50.930;13.334;2023-03-29T00:07:49;9.50;;;1.80;;
27632;SDS011;15046;50.930;13.334;2023-03-29T00:10:19;15.07;;;2.78;;
27632;SDS011;15046;50.930;13.334;2023-03-29T00:12:48;7.57;;;1.90;;
27632;SDS011;15046;50.930;13.334;2023-03-29T00:15:16;5.80;;;1.88;;
27632;SDS011;15046;50.930;13.334;2023-03-29T00:17:42;9.57;;;1.65;;
27632;SDS011;15046;50.930;13.334;2023-03-29T00:20:08;7.97;;;2.40;;
27632;SDS011;15046;50.930;13.334;2023-03-29T00:22:37;7.65;;;1.90;;
27632;SDS011;15046;50.930;13.334;2023-03-29T00:25:06;5.13;;;1.50;;
27632;SDS011;15046;50.930;13.334;2023-03-29T00:27:36;7.18;;;2.40;;
27632;SDS011;15046;50.930;13.334;2023-03-29T00:30:04;9.23;;;2.30;;
27632;SDS011;15046;50.930;13.334;2023-03-29T00:32:31;7.50;;;1.75;;
27632;SDS011;15046;50.930;13.334;2023-03-29T00:34:58;6.22;;;1.90;;
27632;SDS011;15046;50.930;13.334;2023-03-29T00:37:25;7.53;;;1.98;;
27632;SDS011;15046;50.930;13.334;2023-03-29T00:39:54;5.00;;;1.50;;
27632;SDS011;15046;50.930;13.334;2023-03-29T00:42:21;5.63;;;2.45;;
27632;SDS011;15046;50.930;13.334;2023-03-29T00:47:57;8.50;;;1.88;;
27632;SDS011;15046;50.930;13.334;2023-03-29T00:50:40;7.38;;;1.77;;
27632;SDS011;15046;50.930;13.334;2023-03-29T00:53:22;6.75;;;1.83;;
27632;SDS011;15046;50.930;13.334;2023-03-29T00:56:04;8.23;;;2.05;;
27632;SDS011;15046;50.930;13.334;2023-03-29T01:01:25;12.77;;;2.53;;
27632;SDS011;15046;50.930;13.334;2023-03-29T01:06:56;3.72;;;1.90;;
27632;SDS011;15046;50.930;13.334;2023-03-29T01:09:38;5.88;;;1.63;;
27632;SDS011;15046;50.930;13.334;2023-03-29T01:12:09;10.37;;;1.87;;
27632;SDS011;15046;50.930;13.334;2023-03-29T01:14:43;5.80;;;1.65;;
27632;SDS011;15046;50.930;13.334;2023-03-29T01:17:31;5.45;;;1.60;;
27632;SDS011;15046;50.930;13.334;2023-03-29T01:20:00;6.07;;;1.95;;
27632;SDS011;15046;50.930;13.334;2023-03-29T01:28:23;10.50;;;2.63;;
27632;SDS011;15046;50.930;13.334;2023-03-29T01:30:58;7.07;;;1.85;;
27632;SDS011;15046;50.930;13.334;2023-03-29T01:33:43;9.95;;;2.17;;
27632;SDS011;15046;50.930;13.334;2023-03-29T01:36:16;6.90;;;2.22;;
27632;SDS011;15046;50.930;13.334;2023-03-29T01:38:56;8.75;;;1.88;;
27632;SDS011;15046;50.930;13.334;2023-03-29T01:44:27;7.65;;;1.95;;
27632;SDS011;15046;50.930;13.334;2023-03-29T01:47:04;7.35;;;1.90;;
27632;SDS011;15046;50.930;13.334;2023-03-29T01:49:42;5.25;;;1.52;;
27632;SDS011;15046;50.930;13.334;2023-03-29T01:52:21;4.72;;;1.52;;
27632;SDS011;15046;50.930;13.334;2023-03-29T01:55:11;5.88;;;1.83;;
27632;SDS011;15046;50.930;13.334;2023-03-29T01:57:40;4.18;;;1.40;;
27632;SDS011;15046;50.930;13.334;2023-03-29T02:00:15;5.72;;;1.67;;
27632;SDS011;15046;50.930;13.334;2023-03-29T02:02:45;6.47;;;1.90;;
27632;SDS011;15046;50.930;13.334;2023-03-29T02:05:13;6.88;;;2.15;;
27632;SDS011;15046;50.930;13.334;2023-03-29T02:07:41;6.97;;;1.88;;
27632;SDS011;15046;50.930;13.334;2023-03-29T02:10:10;13.32;;;2.60;;
27632;SDS011;15046;50.930;13.334;2023-03-29T02:12:37;10.93;;;3.30;;
27632;SDS011;15046;50.930;13.334;2023-03-29T02:15:04;12.23;;;3.05;;
27632;SDS011;15046;50.930;13.334;2023-03-29T02:17:34;11.63;;;3.08;;
27632;SDS011;15046;50.930;13.334;2023-03-29T02:22:40;12.10;;;2.92;;
27632;SDS011;15046;50.930;13.334;2023-03-29T02:25:13;5.63;;;2.67;;
27632;SDS011;15046;50.930;13.334;2023-03-29T02:27:39;6.90;;;2.55;;
27632;SDS011;15046;50.930;13.334;2023-03-29T02:30:06;5.38;;;1.80;;
27632;SDS011;15046;50.930;13.334;2023-03-29T02:32:45;8.20;;;2.03;;
27632;SDS011;15046;50.930;13.334;2023-03-29T02:35:13;5.32;;;1.52;;
27632;SDS011;15046;50.930;13.334;2023-03-29T02:37:44;4.30;;;1.38;;
27632;SDS011;15046;50.930;13.334;2023-03-29T02:40:13;5.82;;;1.98;;
27632;SDS011;15046;50.930;13.334;2023-03-29T02:42:42;6.38;;;1.88;;
27632;SDS011;15046;50.930;13.334;2023-03-29T02:45:11;7.28;;;2.10;;
27632;SDS011;15046;50.930;13.334;2023-03-29T02:47:42;4.78;;;1.33;;
27632;SDS011;15046;50.930;13.334;2023-03-29T02:50:10;5.78;;;1.83;;
27632;SDS011;15046;50.930;13.334;2023-03-29T02:52:37;7.00;;;1.98;;
27632;SDS011;15046;50.930;13.334;2023-03-29T02:55:10;8.40;;;1.70;;
27632;SDS011;15046;50.930;13.334;2023-03-29T02:57:40;4.95;;;1.55;;
27632;SDS011;15046;50.930;13.334;2023-03-29T03:00:07;7.60;;;2.33;;
27632;SDS011;15046;50.930;13.334;2023-03-29T03:02:37;4.05;;;1.75;;
27632;SDS011;15046;50.930;13.334;2023-03-29T03:05:03;8.63;;;2.15;;
27632;SDS011;15046;50.930;13.334;2023-03-29T03:07:30;4.63;;;1.50;;
27632;SDS011;15046;50.930;13.334;2023-03-29T03:09:58;7.50;;;2.00;;
27632;SDS011;15046;50.930;13.334;2023-03-29T03:12:24;6.57;;;1.60;;
27632;SDS011;15046;50.930;13.334;2023-03-29T03:14:51;6.78;;;2.05;;
27632;SDS011;15046;50.930;13.334;2023-03-29T03:17:17;6.85;;;2.05;;
27632;SDS011;15046;50.930;13.334;2023-03-29T03:19:42;4.22;;;1.67;;
27632;SDS011;15046;50.930;13.334;2023-03-29T03:22:08;4.40;;;1.58;;
27632;SDS011;15046;50.930;13.334;2023-03-29T03:24:34;4.05;;;1.60;;
27632;SDS011;15046;50.930;13.334;2023-03-29T03:27:00;3.45;;;1.42;;
27632;SDS011;15046;50.930;13.334;2023-03-29T03:29:26;4.65;;;1.67;;
27632;SDS011;15046;50.930;13.334;2023-03-29T03:31:52;4.20;;;1.55;;
27632;SDS011;15046;50.930;13.334;2023-03-29T03:34:19;4.15;;;1.92;;
27632;SDS011;15046;50.930;13.334;2023-03-29T03:36:45;7.15;;;1.83;;
27632;SDS011;15046;50.930;13.334;2023-03-29T03:39:11;5.35;;;1.58;;
27632;SDS011;15046;50.930;13.334;2023-03-29T03:41:38;7.18;;;1.88;;
27632;SDS011;15046;50.930;13.334;2023-03-29T03:44:04;5.22;;;2.03;;
27632;SDS011;15046;50.930;13.334;2023-03-29T03:46:30;5.13;;;1.88;;
27632;SDS011;15046;50.930;13.334;2023-03-29T03:48:57;4.10;;;1.58;;
27632;SDS011;15046;50.930;13.334;2023-03-29T03:51:23;7.57;;;1.90;;
27632;SDS011;15046;50.930;13.334;2023-03-29T03:53:49;5.93;;;1.80;;
27632;SDS011;15046;50.930;13.334;2023-03-29T03:56:15;7.63;;;1.70;;
27632;SDS011;15046;50.930;13.334;2023-03-29T03:58:41;5.30;;;2.60;;
27632;SDS011;15046;50.930;13.334;2023-03-29T04:01:07;8.98;;;2.38;;
27632;SDS011;15046;50.930;13.334;2023-03-29T04:03:34;3.63;;;1.90;;
27632;SDS011;15046;50.930;13.334;2023-03-29T04:06:02;6.90;;;3.42;;
27632;SDS011;15046;50.930;13.334;2023-03-29T04:08:28;4.60;;;2.10;;
27632;SDS011;15046;50.930;13.334;2023-03-29T04:10:55;6.15;;;2.28;;
27632;SDS011;15046;50.930;13.334;2023-03-29T04:13:22;7.22;;;2.20;;
27632;SDS011;15046;50.930;13.334;2023-03-29T04:15:49;6.93;;;2.17;;
27632;SDS011;15046;50.930;13.334;2023-03-29T04:18:18;6.75;;;2.25;;
27632;SDS011;15046;50.930;13.334;2023-03-29T04:20:46;5.10;;;2.13;;
27632;SDS011;15046;50.930;13.334;2023-03-29T04:23:12;5.97;;;2.08;;
27632;SDS011;15046;50.930;13.334;2023-03-29T04:25:38;5.72;;;2.45;;
27632;SDS011;15046;50.930;13.334;2023-03-29T04:28:05;7.75;;;2.45;;
27632;SDS011;15046;50.930;13.334;2023-03-29T04:30:31;5.68;;;2.25;;
27632;SDS011;15046;50.930;13.334;2023-03-29T04:32:57;3.58;;;1.60;;
27632;SDS011;15046;50.930;13.334;2023-03-29T04:35:23;6.97;;;2.50;;
27632;SDS011;15046;50.930;13.334;2023-03-29T04:37:49;8.35;;;2.22;;
27632;SDS011;15046;50.930;13.334;2023-03-29T04:40:16;6.38;;;2.28;;
27632;SDS011;15046;50.930;13.334;2023-03-29T04:42:43;5.00;;;2.22;;
27632;SDS011;15046;50.930;13.334;2023-03-29T04:45:11;8.27;;;2.20;;
27632;SDS011;15046;50.930;13.334;2023-03-29T04:47:38;6.00;;;2.65;;
27632;SDS011;15046;50.930;13.334;2023-03-29T04:50:06;6.30;;;2.58;;
27632;SDS011;15046;50.930;13.334;2023-03-29T04:52:32;8.60;;;3.70;;
27632;SDS011;15046;50.930;13.334;2023-03-29T04:54:59;4.53;;;2.53;;
27632;SDS011;15046;50.930;13.334;2023-03-29T04:57:25;5.63;;;2.10;;
27632;SDS011;15046;50.930;13.334;2023-03-29T04:59:51;8.70;;;3.38;;
27632;SDS011;15046;50.930;13.334;2023-03-29T05:02:17;4.30;;;2.45;;
27632;SDS011;15046;50.930;13.334;2023-03-29T05:04:43;6.70;;;2.60;;
27632;SDS011;15046;50.930;13.334;2023-03-29T05:07:09;7.57;;;2.50;;
27632;SDS011;15046;50.930;13.334;2023-03-29T05:09:37;4.53;;;2.15;;
27632;SDS011;15046;50.930;13.334;2023-03-29T05:12:04;6.20;;;2.50;;
27632;SDS011;15046;50.930;13.334;2023-03-29T05:14:30;5.57;;;2.75;;
27632;SDS011;15046;50.930;13.334;2023-03-29T05:16:56;5.72;;;2.40;;
27632;SDS011;15046;50.930;13.334;2023-03-29T05:19:22;6.38;;;2.80;;
27632;SDS011;15046;50.930;13.334;2023-03-29T05:21:49;4.70;;;2.58;;
27632;SDS011;15046;50.930;13.334;2023-03-29T05:24:17;6.47;;;3.05;;
27632;SDS011;15046;50.930;13.334;2023-03-29T05:26:43;6.55;;;2.85;;
27632;SDS011;15046;50.930;13.334;2023-03-29T05:29:09;10.18;;;3.85;;
27632;SDS011;15046;50.930;13.334;2023-03-29T05:31:36;6.35;;;2.97;;
27632;SDS011;15046;50.930;13.334;2023-03-29T05:34:02;6.80;;;2.83;;
27632;SDS011;15046;50.930;13.334;2023-03-29T05:36:29;7.13;;;2.58;;
27632;SDS011;15046;50.930;13.334;2023-03-29T05:38:55;6.95;;;2.58;;
27632;SDS011;15046;50.930;13.334;2023-03-29T05:41:21;5.28;;;2.35;;
27632;SDS011;15046;50.930;13.334;2023-03-29T05:43:48;7.95;;;2.90;;
27632;SDS011;15046;50.930;13.334;2023-03-29T05:46:13;6.88;;;2.47;;
27632;SDS011;15046;50.930;13.334;2023-03-29T05:48:41;7.82;;;2.85;;
27632;SDS011;15046;50.930;13.334;2023-03-29T05:51:07;9.10;;;3.47;;
27632;SDS011;15046;50.930;13.334;2023-03-29T05:53:33;7.82;;;3.70;;
27632;SDS011;15046;50.930;13.334;2023-03-29T05:55:59;6.75;;;3.05;;
27632;SDS011;15046;50.930;13.334;2023-03-29T05:58:26;6.72;;;3.25;;
27632;SDS011;15046;50.930;13.334;2023-03-29T06:00:52;7.85;;;2.70;;
27632;SDS011;15046;50.930;13.334;2023-03-29T06:03:19;6.30;;;2.58;;
27632;SDS011;15046;50.930;13.334;2023-03-29T06:05:54;8.02;;;3.33;;
27632;SDS011;15046;50.930;13.334;2023-03-29T06:08:26;8.77;;;2.60;;
27632;SDS011;15046;50.930;13.334;2023-03-29T06:11:26;8.15;;;3.58;;
27632;SDS011;15046;50.930;13.334;2023-03-29T06:13:48;8.80;;;2.35;;
27632;SDS011;15046;50.930;13.334;2023-03-29T06:16:14;7.35;;;3.05;;
27632;SDS011;15046;50.930;13.334;2023-03-29T06:18:40;9.25;;;3.13;;
27632;SDS011;15046;50.930;13.334;2023-03-29T06:21:06;6.68;;;2.92;;
27632;SDS011;15046;50.930;13.334;2023-03-29T06:23:33;8.38;;;3.03;;
27632;SDS011;15046;50.930;13.334;2023-03-29T06:26:01;5.20;;;2.30;;
27632;SDS011;15046;50.930;13.334;2023-03-29T06:28:26;5.82;;;2.60;;
27632;SDS011;15046;50.930;13.334;2023-03-29T06:30:52;5.97;;;2.80;;
27632;SDS011;15046;50.930;13.334;2023-03-29T06:33:20;7.32;;;2.28;;
27632;SDS011;15046;50.930;13.334;2023-03-29T06:35:47;6.63;;;2.95;;
27632;SDS011;15046;50.930;13.334;2023-03-29T06:38:14;6.35;;;2.63;;
27632;SDS011;15046;50.930;13.334;2023-03-29T06:40:40;6.95;;;3.38;;
27632;SDS011;15046;50.930;13.334;2023-03-29T06:43:07;4.95;;;2.55;;
27632;SDS011;15046;50.930;13.334;2023-03-29T06:45:34;6.30;;;3.00;;
27632;SDS011;15046;50.930;13.334;2023-03-29T06:48:01;7.78;;;3.40;;
27632;SDS011;15046;50.930;13.334;2023-03-29T06:50:28;5.50;;;2.72;;
27632;SDS011;15046;50.930;13.334;2023-03-29T06:52:55;6.22;;;2.85;;
27632;SDS011;15046;50.930;13.334;2023-03-29T06:55:21;4.93;;;2.40;;
27632;SDS011;15046;50.930;13.334;2023-03-29T06:57:48;5.05;;;2.50;;
27632;SDS011;15046;50.930;13.334;2023-03-29T07:00:14;4.85;;;2.00;;
27632;SDS011;15046;50.930;13.334;2023-03-29T07:02:51;7.40;;;3.10;;
27632;SDS011;15046;50.930;13.334;2023-03-29T07:05:18;5.75;;;2.70;;
27632;SDS011;15046;50.930;13.334;2023-03-29T07:07:46;5.25;;;2.53;;
27632;SDS011;15046;50.930;13.334;2023-03-29T07:10:21;13.55;;;3.38;;
27632;SDS011;15046;50.930;13.334;2023-03-29T07:12:50;8.85;;;4.18;;
27632;SDS011;15046;50.930;13.334;2023-03-29T07:15:17;5.43;;;2.85;;
27632;SDS011;15046;50.930;13.334;2023-03-29T07:17:44;5.85;;;3.20;;
27632;SDS011;15046;50.930;13.334;2023-03-29T07:20:10;7.03;;;2.58;;
27632;SDS011;15046;50.930;13.334;2023-03-29T07:22:42;5.13;;;2.40;;
27632;SDS011;15046;50.930;13.334;2023-03-29T07:25:09;4.43;;;2.67;;
27632;SDS011;15046;50.930;13.334;2023-03-29T07:27:36;5.70;;;2.67;;
27632;SDS011;15046;50.930;13.334;2023-03-29T07:30:04;8.38;;;2.60;;
27632;SDS011;15046;50.930;13.334;2023-03-29T07:32:35;5.93;;;3.08;;
27632;SDS011;15046;50.930;13.334;2023-03-29T07:35:03;6.05;;;2.83;;
27632;SDS011;15046;50.930;13.334;2023-03-29T07:37:30;7.03;;;2.95;;
27632;SDS011;15046;50.930;13.334;2023-03-29T07:39:56;9.68;;;3.13;;
27632;SDS011;15046;50.930;13.334;2023-03-29T07:42:24;6.35;;;2.92;;
27632;SDS011;15046;50.930;13.334;2023-03-29T07:44:53;6.07;;;2.58;;
27632;SDS011;15046;50.930;13.334;2023-03-29T07:47:19;6.50;;;3.05;;
27632;SDS011;15046;50.930;13.334;2023-03-29T07:49:46;6.55;;;3.33;;
27632;SDS011;15046;50.930;13.334;2023-03-29T07:52:11;5.65;;;3.10;;
27632;SDS011;15046;50.930;13.334;2023-03-29T07:54:37;6.78;;;3.25;;
27632;SDS011;15046;50.930;13.334;2023-03-29T07:57:03;7.82;;;3.35;;
27632;SDS011;15046;50.930;13.334;2023-03-29T07:59:29;5.97;;;2.92;;
27632;SDS011;15046;50.930;13.334;2023-03-29T08:01:55;14.75;;;4.53;;
27632;SDS011;15046;50.930;13.334;2023-03-29T08:04:21;6.93;;;3.38;;
27632;SDS011;15046;50.930;13.334;2023-03-29T08:06:47;7.82;;;3.15;;
27632;SDS011;15046;50.930;13.334;2023-03-29T08:09:13;7.93;;;3.83;;
27632;SDS011;15046;50.930;13.334;2023-03-29T08:11:39;6.18;;;3.15;;
27632;SDS011;15046;50.930;13.334;2023-03-29T08:14:05;6.05;;;3.28;;
27632;SDS011;15046;50.930;13.334;2023-03-29T08:16:33;4.35;;;2.75;;
27632;SDS011;15046;50.930;13.334;2023-03-29T08:18:58;5.50;;;2.92;;
27632;SDS011;15046;50.930;13.334;2023-03-29T08:21:24;5.50;;;2.92;;
27632;SDS011;15046;50.930;13.334;2023-03-29T08:23:50;5.53;;;3.10;;
27632;SDS011;15046;50.930;13.334;2023-03-29T08:26:16;5.25;;;3.00;;
27632;SDS011;15046;50.930;13.334;2023-03-29T08:28:42;8.05;;;4.32;;
27632;SDS011;15046;50.930;13.334;2023-03-29T08:31:09;7.80;;;2.97;;
27632;SDS011;15046;50.930;13.334;2023-03-29T08:33:35;7.72;;;3.40;;
27632;SDS011;15046;50.930;13.334;2023-03-29T08:36:02;7.32;;;3.65;;
27632;SDS011;15046;50.930;13.334;2023-03-29T08:38:28;7.68;;;3.00;;
27632;SDS011;15046;50.930;13.334;2023-03-29T08:40:54;10.25;;;3.58;;
27632;SDS011;15046;50.930;13.334;2023-03-29T08:43:43;7.72;;;3.13;;
27632;SDS011;15046;50.930;13.334;2023-03-29T08:48:58;5.35;;;2.92;;
27632;SDS011;15046;50.930;13.334;2023-03-29T08:51:37;5.68;;;2.90;;
27632;SDS011;15046;50.930;13.334;2023-03-29T08:54:14;6.30;;;3.55;;
27632;SDS011;15046;50.930;13.334;2023-03-29T08:57:15;5.72;;;2.65;;
27632;SDS011;15046;50.930;13.334;2023-03-29T08:59:45;4.88;;;2.85;;
27632;SDS011;15046;50.930;13.334;2023-03-29T09:02:15;7.30;;;3.20;;
27632;SDS011;15046;50.930;13.334;2023-03-29T09:04:46;5.50;;;3.15;;
27632;SDS011;15046;50.930;13.334;2023-03-29T09:07:13;6.22;;;3.05;;
27632;SDS011;15046;50.930;13.334;2023-03-29T09:09:40;7.72;;;2.70;;
27632;SDS011;15046;50.930;13.334;2023-03-29T09:12:18;6.68;;;3.05;;
27632;SDS011;15046;50.930;13.334;2023-03-29T09:17:31;6.45;;;2.92;;
27632;SDS011;15046;50.930;13.334;2023-03-29T09:39:25;9.00;;;2.85;;
27632;SDS011;15046;50.930;13.334;2023-03-29T09:41:59;6.45;;;2.65;;
27632;SDS011;15046;50.930;13.334;2023-03-29T09:44:47;5.90;;;2.70;;
27632;SDS011;15046;50.930;13.334;2023-03-29T09:49:44;5.20;;;2.38;;
27632;SDS011;15046;50.930;13.334;2023-03-29T09:52:14;6.82;;;3.03;;
27632;SDS011;15046;50.930;13.334;2023-03-29T09:54:41;9.27;;;3.38;;
27632;SDS011;15046;50.930;13.334;2023-03-29T09:57:10;6.35;;;2.75;;
27632;SDS011;15046;50.930;13.334;2023-03-29T09:59:37;5.30;;;3.00;;
27632;SDS011;15046;50.930;13.334;2023-03-29T10:02:06;4.93;;;2.83;;
27632;SDS011;15046;50.930;13.334;2023-03-29T10:04:36;5.53;;;2.80;;
27632;SDS011;15046;50.930;13.334;2023-03-29T10:07:02;7.57;;;2.80;;
27632;SDS011;15046;50.930;13.334;2023-03-29T10:09:30;7.07;;;2.58;;
27632;SDS011;15046;50.930;13.334;2023-03-29T10:12:00;5.63;;;3.25;;
27632;SDS011;15046;50.930;13.334;2023-03-29T10:14:37;7.25;;;2.95;;
27632;SDS011;15046;50.930;13.334;2023-03-29T10:17:21;5.50;;;2.92;;
27632;SDS011;15046;50.930;13.334;2023-03-29T10:19:51;5.20;;;2.88;;
27632;SDS011;15046;50.930;13.334;2023-03-29T10:22:23;6.38;;;2.80;;
27632;SDS011;15046;50.930;13.334;2023-03-29T10:24:53;4.30;;;2.42;;
27632;SDS011;15046;50.930;13.334;2023-03-29T10:27:22;6.38;;;2.70;;
27632;SDS011;15046;50.930;13.334;2023-03-29T10:29:51;6.47;;;2.75;;
27632;SDS011;15046;50.930;13.334;2023-03-29T10:35:21;4.90;;;2.60;;
27632;SDS011;15046;50.930;13.334;2023-03-29T10:37:50;5.05;;;2.72;;
27632;SDS011;15046;50.930;13.334;2023-03-29T10:40:21;5.57;;;2.80;;
27632;SDS011;15046;50.930;13.334;2023-03-29T10:42:58;5.22;;;2.50;;
27632;SDS011;15046;50.930;13.334;2023-03-29T10:45:53;5.10;;;2.83;;
27632;SDS011;15046;50.930;13.334;2023-03-29T10:48:26;6.65;;;3.38;;
27632;SDS011;15046;50.930;13.334;2023-03-29T10:50:56;6.20;;;2.67;;
27632;SDS011;15046;50.930;13.334;2023-03-29T10:53:27;6.10;;;2.38;;
27632;SDS011;15046;50.930;13.334;2023-03-29T10:56:10;5.13;;;2.75;;
27632;SDS011;15046;50.930;13.334;2023-03-29T11:01:25;5.43;;;2.72;;
27632;SDS011;15046;50.930;13.334;2023-03-29T11:06:39;6.75;;;2.50;;
27632;SDS011;15046;50.930;13.334;2023-03-29T11:11:50;6.15;;;3.20;;
27632;SDS011;15046;50.930;13.334;2023-03-29T11:17:13;6.40;;;3.22;;
27632;SDS011;15046;50.930;13.334;2023-03-29T11:20:03;5.13;;;2.38;;
27632;SDS011;15046;50.930;13.334;2023-03-29T11:23:53;5.50;;;3.10;;
27632;SDS011;15046;50.930;13.334;2023-03-29T11:31:52;4.50;;;2.42;;
27632;SDS011;15046;50.930;13.334;2023-03-29T11:34:51;7.85;;;3.08;;
27632;SDS011;15046;50.930;13.334;2023-03-29T11:37:40;7.45;;;2.90;;
27632;SDS011;15046;50.930;13.334;2023-03-29T11:40:37;5.63;;;2.80;;
27632;SDS011;15046;50.930;13.334;2023-03-29T11:43:11;5.85;;;2.50;;
27632;SDS011;15046;50.930;13.334;2023-03-29T11:45:59;5.15;;;2.13;;
27632;SDS011;15046;50.930;13.334;2023-03-29T11:48:32;5.45;;;2.30;;
27632;SDS011;15046;50.930;13.334;2023-03-29T11:56:28;6.57;;;3.40;;
27632;SDS011;15046;50.930;13.334;2023-03-29T11:59:04;6.25;;;2.55;;
27632;SDS011;15046;50.930;13.334;2023-03-29T12:01:46;5.63;;;2.60;;
27632;SDS011;15046;50.930;13.334;2023-03-29T12:04:18;5.80;;;2.65;;
27632;SDS011;15046;50.930;13.334;2023-03-29T12:12:09;4.95;;;3.00;;
27632;SDS011;15046;50.930;13.334;2023-03-29T12:18:01;5.22;;;2.50;;
27632;SDS011;15046;50.930;13.334;2023-03-29T12:20:27;4.90;;;2.47;;
27632;SDS011;15046;50.930;13.334;2023-03-29T12:22:57;6.10;;;2.28;;
27632;SDS011;15046;50.930;13.334;2023-03-29T12:25:25;3.30;;;1.60;;
27632;SDS011;15046;50.930;13.334;2023-03-29T12:30:41;4.22;;;1.90;;
27632;SDS011;15046;50.930;13.334;2023-03-29T12:33:42;5.50;;;2.30;;
27632;SDS011;15046;50.930;13.334;2023-03-29T12:38:49;4.53;;;2.05;;
27632;SDS011;15046;50.930;13.334;2023-03-29T12:41:17;7.10;;;2.85;;
27632;SDS011;15046;50.930;13.334;2023-03-29T12:43:45;5.32;;;2.65;;
27632;SDS011;15046;50.930;13.334;2023-03-29T12:48:43;5.03;;;2.35;;
27632;SDS011;15046;50.930;13.334;2023-03-29T12:51:13;7.63;;;2.42;;
27632;SDS011;15046;50.930;13.334;2023-03-29T12:53:51;6.97;;;2.65;;
27632;SDS011;15046;50.930;13.334;2023-03-29T12:56:20;6.55;;;2.60;;
27632;SDS011;15046;50.930;13.334;2023-03-29T13:01:59;4.50;;;2.70;;
27632;SDS011;15046;50.930;13.334;2023-03-29T13:04:36;8.05;;;2.95;;
27632;SDS011;15046;50.930;13.334;2023-03-29T13:07:14;5.97;;;2.28;;
27632;SDS011;15046;50.930;13.334;2023-03-29T13:14:43;5.60;;;2.40;;
27632;SDS011;15046;50.930;13.334;2023-03-29T13:31:42;6.18;;;3.15;;
27632;SDS011;15046;50.930;13.334;2023-03-29T13:39:52;6.45;;;2.90;;
27632;SDS011;15046;50.930;13.334;2023-03-29T13:45:14;6.18;;;3.35;;
27632;SDS011;15046;50.930;13.334;2023-03-29T13:48:18;6.18;;;3.35;;
27632;SDS011;15046;50.930;13.334;2023-03-29T13:50:58;7.18;;;3.17;;
27632;SDS011;15046;50.930;13.334;2023-03-29T13:53:40;10.15;;;3.70;;
27632;SDS011;15046;50.930;13.334;2023-03-29T13:56:16;7.47;;;3.58;;
27632;SDS011;15046;50.930;13.334;2023-03-29T13:58:48;6.20;;;3.20;;
27632;SDS011;15046;50.930;13.334;2023-03-29T14:01:24;5.38;;;3.10;;
27632;SDS011;15046;50.930;13.334;2023-03-29T14:04:04;5.03;;;3.10;;
27632;SDS011;15046;50.930;13.334;2023-03-29T14:06:36;5.93;;;3.10;;
27632;SDS011;15046;50.930;13.334;2023-03-29T14:09:04;8.50;;;3.78;;
27632;SDS011;15046;50.930;13.334;2023-03-29T14:11:33;5.75;;;3.13;;
27632;SDS011;15046;50.930;13.334;2023-03-29T14:14:00;6.45;;;3.70;;
27632;SDS011;15046;50.930;13.334;2023-03-29T14:16:33;8.52;;;3.80;;
27632;SDS011;15046;50.930;13.334;2023-03-29T14:21:35;12.05;;;3.35;;
27632;SDS011;15046;50.930;13.334;2023-03-29T14:24:02;8.23;;;3.83;;
27632;SDS011;15046;50.930;13.334;2023-03-29T14:26:32;6.25;;;3.10;;
27632;SDS011;15046;50.930;13.334;2023-03-29T14:29:00;6.03;;;3.42;;
27632;SDS011;15046;50.930;13.334;2023-03-29T14:31:30;7.35;;;3.25;;
27632;SDS011;15046;50.930;13.334;2023-03-29T14:34:00;5.97;;;3.25;;
27632;SDS011;15046;50.930;13.334;2023-03-29T14:36:29;6.30;;;3.55;;
27632;SDS011;15046;50.930;13.334;2023-03-29T14:39:15;6.75;;;3.75;;
27632;SDS011;15046;50.930;13.334;2023-03-29T14:44:26;7.20;;;3.97;;
27632;SDS011;15046;50.930;13.334;2023-03-29T14:49:21;6.80;;;3.65;;
27632;SDS011;15046;50.930;13.334;2023-03-29T14:51:48;7.65;;;3.40;;
27632;SDS011;15046;50.930;13.334;2023-03-29T14:54:25;5.97;;;3.08;;
27632;SDS011;15046;50.930;13.334;2023-03-29T14:56:57;7.13;;;3.50;;
27632;SDS011;15046;50.930;13.334;2023-03-29T14:59:36;8.38;;;3.60;;
27632;SDS011;15046;50.930;13.334;2023-03-29T15:02:05;6.72;;;3.22;;
27632;SDS011;15046;50.930;13.334;2023-03-29T15:04:53;11.25;;;6.32;;
27632;SDS011;15046;50.930;13.334;2023-03-29T15:07:29;9.18;;;4.20;;
27632;SDS011;15046;50.930;13.334;2023-03-29T15:09:57;11.07;;;5.68;;
27632;SDS011;15046;50.930;13.334;2023-03-29T15:12:28;11.13;;;5.32;;
27632;SDS011;15046;50.930;13.334;2023-03-29T15:14:55;10.32;;;4.50;;
27632;SDS011;15046;50.930;13.334;2023-03-29T15:17:35;6.97;;;3.47;;
27632;SDS011;15046;50.930;13.334;2023-03-29T15:20:15;5.95;;;3.70;;
27632;SDS011;15046;50.930;13.334;2023-03-29T15:25:31;7.00;;;3.40;;
27632;SDS011;15046;50.930;13.334;2023-03-29T15:28:02;5.70;;;2.72;;
27632;SDS011;15046;50.930;13.334;2023-03-29T15:30:33;5.03;;;2.80;;
27632;SDS011;15046;50.930;13.334;2023-03-29T15:33:12;6.80;;;2.80;;
27632;SDS011;15046;50.930;13.334;2023-03-29T15:35:39;5.40;;;3.38;;
27632;SDS011;15046;50.930;13.334;2023-03-29T15:38:05;5.15;;;2.38;;
27632;SDS011;15046;50.930;13.334;2023-03-29T15:40:34;7.40;;;2.67;;
27632;SDS011;15046;50.930;13.334;2023-03-29T15:43:00;5.03;;;2.47;;
27632;SDS011;15046;50.930;13.334;2023-03-29T15:45:26;5.13;;;2.83;;
27632;SDS011;15046;50.930;13.334;2023-03-29T15:47:52;6.20;;;2.38;;
27632;SDS011;15046;50.930;13.334;2023-03-29T15:50:17;6.28;;;2.78;;
27632;SDS011;15046;50.930;13.334;2023-03-29T15:52:43;5.47;;;2.65;;
27632;SDS011;15046;50.930;13.334;2023-03-29T15:55:09;5.50;;;2.60;;
27632;SDS011;15046;50.930;13.334;2023-03-29T15:57:35;5.90;;;2.50;;
27632;SDS011;15046;50.930;13.334;2023-03-29T16:00:02;5.40;;;2.40;;
27632;SDS011;15046;50.930;13.334;2023-03-29T16:02:32;8.60;;;2.50;;
27632;SDS011;15046;50.930;13.334;2023-03-29T16:04:58;5.55;;;2.30;;
27632;SDS011;15046;50.930;13.334;2023-03-29T16:07:25;5.15;;;2.65;;
27632;SDS011;15046;50.930;13.334;2023-03-29T16:09:51;4.65;;;2.55;;
27632;SDS011;15046;50.930;13.334;2023-03-29T16:12:17;5.95;;;2.65;;
27632;SDS011;15046;50.930;13.334;2023-03-29T16:14:42;7.70;;;3.10;;
27632;SDS011;15046;50.930;13.334;2023-03-29T16:17:08;5.60;;;3.10;;
27632;SDS011;15046;50.930;13.334;2023-03-29T16:19:34;5.60;;;2.90;;
27632;SDS011;15046;50.930;13.334;2023-03-29T16:22:00;4.65;;;2.90;;
27632;SDS011;15046;50.930;13.334;2023-03-29T16:24:31;4.93;;;2.88;;
27632;SDS011;15046;50.930;13.334;2023-03-29T16:26:57;6.28;;;3.30;;
27632;SDS011;15046;50.930;13.334;2023-03-29T16:29:25;6.35;;;3.55;;
27632;SDS011;15046;50.930;13.334;2023-03-29T16:31:51;7.00;;;3.25;;
27632;SDS011;15046;50.930;13.334;2023-03-29T16:34:17;9.57;;;4.07;;
27632;SDS011;15046;50.930;13.334;2023-03-29T16:36:44;6.28;;;2.67;;
27632;SDS011;15046;50.930;13.334;2023-03-29T16:39:10;5.18;;;2.92;;
27632;SDS011;15046;50.930;13.334;2023-03-29T16:41:38;6.18;;;2.40;;
27632;SDS011;15046;50.930;13.334;2023-03-29T16:44:04;6.32;;;2.65;;
27632;SDS011;15046;50.930;13.334;2023-03-29T16:46:31;5.43;;;3.38;;
27632;SDS011;15046;50.930;13.334;2023-03-29T16:48:57;5.22;;;2.55;;
27632;SDS011;15046;50.930;13.334;2023-03-29T16:51:23;3.83;;;2.10;;
27632;SDS011;15046;50.930;13.334;2023-03-29T16:53:49;4.53;;;2.50;;
27632;SDS011;15046;50.930;13.334;2023-03-29T16:56:16;5.85;;;2.88;;
27632;SDS011;15046;50.930;13.334;2023-03-29T16:58:42;4.93;;;2.60;;
27632;SDS011;15046;50.930;13.334;2023-03-29T17:01:09;6.43;;;2.67;;